Scroll down
FLIGHT INFORMATION
SAS Scandinavian Airlines

SAS9078

At Arrival Gate

ENGM
 ESSA
DATE: 2020-10-12
GATE: G8
GATE DEPARTURE: 01:35
TAKEOFF: 01:46
DATE: 2020-10-12
GATE: G26
LANDING: 02:27
GATE ARRIVAL: 02:33
FLIGHT DATA
Crew: 
Speed: 
452 kts
Altitude: 
33,014 ft
Stage Length: 
208.2 nm
Block Time: 
1 hrs
Flight Time: 
0.7 hrs
Fuel Used: 
4,359 lb
Cleared Route: ENGM MASEV LEGPO MILNU ARGIB ELTOK ESSA
TRACK DATA
50,000 ft 1,000 kts
AIRCRAFT INFO AND CUMULATIVE STATS
Aircraft Type: 
B738
Registration: 
SELCAL: 
MSN/LN: 
28318 / 529
Total Flights: 
22
Total Block Time: 
52.4 hrs
Total Flight Time: 
47.1 hrs
Total Fuel Time: 
288,016 lb
DATALINK LOG | Newest first | Current as of: 2020-11-27 20:30:50
LABEL SEQUENCE CONTENT Dn/Up
5Z353312 OCT 20 02:34:41z / FLT DECK GOOD / ACF POS GOOD / GRND SERVICES GOOD / MAINT FAILURES ACTIVE▼ Dn
QD343302:33 6▼ Dn
QC282702:27▼ Dn
GA0111GATE G26▲ Up
GR0100ESSA 02:28 HI-VAL NO DIPL/VIP NO▼ Dn
2U5346ESSA 120120Z 27005KT 7000 -DZ OVC013 07/05 Q1010 NOSIG▲ Up
2S5253ESSA▼ Dn
QB464601:46▼ Dn
QA353501:35 10.4▼ Dn
2U2714ESSA 120050Z 24006KT 9999 BKN015 07/05 Q1010 NOSIG▲ Up
2U2714ENGM 120050Z 30005KT 260V010 CAVOK 08/02 Q1012▲ Up
2S2727ENGM ESSA▼ Dn
A32434CLEARED TO ESSA VIA MASE4A MASEV Z183 ELTOK ELTO3V. SQUAWK 6640.▲ Up
B32425ENGM ESSA SAS9078 LN-RCN N ▼ Dn
Q01718[LINK ACK]▲ Up
Q01718[LINK TEST]▼ Dn


AIRCRAFT HISTORY
FLIGHT DATE FLIGHT NO. ORIGIN DESTINATION CLEARED ROUTE BLOCK TIME FLIGHT TIME FUEL USED PILOT
2020-11-27SAS797LDDU ENSB LDDU MADOS GEBNI SIVLA BAREB XOMBA NIT VALPI REGLI UPKIS MIXAT MOLIL VAPOS DOMAG MOTAD PENOR TESPO ARMOD INGIS NUGPU TRS RESNA DEGAL PENAX VIBON ORTEN EDIKI AMPIS ENSB5.8 hrs5.7 hrs32,822 lbMatthew Gales
2020-10-26SAS1026LEBB LDDU 2.6 hrs2.4 hrs14,168 lbMatthew Gales
2020-10-26SAS0264ESSA LEBB ESSA SA551 SA561 SA566 SA728 NOSLI TONSA ABAMA GIMRU IDOSA TOLVU RAPOR RENSA NITEP GIMER PIWEB AHVEC RESMI DEKOD DISAK ARKIP ARNAV LMG UVELI OSMOB VAVIX MAGEC BTZ URUNA SSN BLV LEBB4.2 hrs3.8 hrs22,398 lbMatthew Gales
2020-10-20SAS9029ESGG ESSA ESGG LABAN DETSO PELIT TORVA ARS ELTOK ESSA1 hrs0.7 hrs4,298 lbAnton Vind
2020-10-19SAS7514GCLP ESGG GCLP VASTO SULAM BAROK SUNES SOTEX EVURA BIRBA PORTA RODAP BABOV BARDI ZMR NUBLO RONSI DELOG DESAB TEPRA NORMI MOKOR OLEBA BAKUL ARDOD OBATO RONAX SORAP DITAL EVX PODEM BAZOS SOMIL BELDI VEKIN ADUTO FERDI HELEN TOLEN JUIST NIRDU CORIS WELGO LEGPI TUSKA GOTEX LOBBI ESGG5.1 hrs4.9 hrs28,569 lbAnton Vind
2020-10-19SAS7513ESGG GCLP ESGG VADIN TUSKA CIV MEDIL PITHI LESDO KOVIN DUCRA RESMI DEKOD DISAK ARKIP ARNAV LMG UVELI OSMOB ARVID PPN NOLSA ALEPO VASUM GARVU BANEV BAN GOTOR KAMPO MONTO MOLIN HIJ SVL CLANA KORNO ABODA IBALU ERMED TOVRA VEDOD TERTO GCLP5.8 hrs5.6 hrs31,708 lbAnton Vind
2020-10-19SAS9028ESSA ESGG ESSA ARS BEDLA TABUT DEPEX LAPSI MOXAM ESGG1 hrs0.7 hrs4,312 lbAnton Vind
2020-10-12SAS9078ENGM ESSA ENGM MASEV LEGPO MILNU ARGIB ELTOK ESSA1 hrs0.7 hrs4,359 lbAnton Vind
2020-10-07SAS7544LGSA ENGM LGSA SOKRI IXIMA EKTOS VELOP SKP BAMOS AGISA AMSIV LEKPO TSL MAKED LONTA UDVAR PARAK AMRAX BILNA SOPAV REGLI EPOPA SOGPI DEVEG NUDRO ARMEX XIDNA ADVAB GINOK RONEX MIRVO VIBUL BABEN KOLOB ROE NILEN LALIL SABAK XENTA REGMA LUNIP ENGM4.1 hrs3.8 hrs23,286 lbAnton Vind
2020-10-07SAS7543ESSD LGSA ESSD BOR PERAX ELTOK TRS APZER DISRU ROGMI VSB GELDA GARSO AGONA TURIP REPMI KRD RUTAM GITOV KEFIR ROBTU KENIN NARKA NEPOT LAMIT TITEK NULGO OSTOV INBOL LUKOV ROVAM PENEV BLO LARAT DILVO OTKOK NIKTI LASBU VAMKO PEREN SKP SIGFO ROPOX ATV MANOK LGSA4.2 hrs3.9 hrs24,815 lbAnton Vind
2020-10-07SAS9227ESSA ESSD ESSA KOGAV PERAX ESSD0.7 hrs0.5 hrs3,867 lbAnton Vind
2020-09-24SAS35ESNU ESSA ESNU DEDIT SIPRI HMR ESSA1.2 hrs0.9 hrs5,875 lbBig Swede
2020-08-07SAS25ESNQ ESNU ESNQ TERPA KETEL ESNU1 hrs0.8 hrs6,146 lbBig Swede
2020-07-30SAS1044ESSA ESNQ ESSA SA551 SA564 SA709 SA710 SA855 LUMAX RESNA OSK RASEN REKMI OSKIR ITVAV VAGAS NQ704 NQ703 RW031.8 hrs1.4 hrs9,293 lbBig Swede
2020-06-27SAS414EKCH ESSA EKCH KEMAX NEXIL ROXEN DEKIK VEPIP BEDOS NEFYN MIKNA PELUP NILUG ESSA1.3 hrs1 hrs6,605 lbBig Swede
2020-02-20SAS1407ESSA EKCH 1.5 hrs1 hrs7,235 lbBig Swede
2020-01-24SAS1045ESNQ ESSA 1.8 hrs1.4 hrs7,391 lbBig Swede
2019-12-07SAS1207ENGM ESNQ 1.7 hrs1.5 hrs9,123 lbDouglas Morlan
2019-11-14SAS4431ENTC ENGM 2.5 hrs2 hrs12,569 lbKyle Rodgers
2019-11-14SAS4425ENSB ENTC 1.7 hrs1.4 hrs9,089 lbKyle Rodgers
2019-11-14SAS4414ENTC ENSB 1.7 hrs1.5 hrs9,499 lbKyle Rodgers
2019-11-14SAS4406ENGM ENTC 2 hrs1.6 hrs10,589 lbKyle Rodgers